Time;durP1;ratioP1;P1;durP2;ratioP2;P2;SDS_P1;SDS_P2;PMS_P1;PMS_P2;Temp;Humidity;BMP_temperature;BMP_pressure;BME280_temperature;BME280_humidity;BME280_pressure;Samples;Min_cycle;Max_cycle;Signal;HPM_P1;HPM_P2
2023/12/30 00:02:02;;;;;;;6.00;5.40;;;;;;;5.41;100.00;100441.69;104035;1269;61328;-59
2023/12/30 00:04:29;;;;;;;5.70;5.10;;;;;;;5.41;100.00;100437.05;103823;1264;73106;-59
2023/12/30 00:06:57;;;;;;;7.60;5.70;;;;;;;5.41;100.00;100434.20;104072;1264;67452;-56
2023/12/30 00:09:24;;;;;;;6.50;4.70;;;;;;;5.39;100.00;100430.66;104108;1270;71375;-57
2023/12/30 00:11:51;;;;;;;6.70;5.40;;;;;;;5.38;100.00;100431.75;103974;1270;61385;-58
2023/12/30 00:14:18;;;;;;;5.50;4.50;;;;;;;5.37;100.00;100432.30;104218;1269;59621;-56
2023/12/30 00:16:46;;;;;;;5.10;4.60;;;;;;;5.36;100.00;100433.58;104213;1264;73645;-56
2023/12/30 00:19:13;;;;;;;4.60;4.00;;;;;;;5.37;100.00;100435.86;104074;1270;65579;-58
2023/12/30 00:21:40;;;;;;;5.10;4.10;;;;;;;5.38;100.00;100432.29;104126;1269;73665;-59
2023/12/30 00:24:08;;;;;;;5.80;4.50;;;;;;;5.40;100.00;100432.97;104117;1271;60461;-58
2023/12/30 00:26:35;;;;;;;6.00;4.40;;;;;;;5.43;100.00;100431.69;104061;1264;59627;-58
2023/12/30 00:29:03;;;;;;;8.40;4.40;;;;;;;5.44;100.00;100429.17;104181;1269;75060;-58
2023/12/30 00:31:32;;;;;;;5.90;5.30;;;;;;;5.45;100.00;100431.09;106130;1264;65782;-56
2023/12/30 00:34:00;;;;;;;6.50;5.10;;;;;;;5.45;100.00;100433.08;104387;1267;71764;-57
2023/12/30 00:36:28;;;;;;;5.70;4.90;;;;;;;5.43;100.00;100425.83;106777;1267;59710;-56
2023/12/30 00:38:56;;;;;;;6.40;4.30;;;;;;;5.42;100.00;100424.41;104401;1264;60162;-58
2023/12/30 00:41:24;;;;;;;7.20;4.30;;;;;;;5.41;100.00;100425.66;104385;1266;73131;-58
2023/12/30 00:43:51;;;;;;;5.90;3.80;;;;;;;5.40;100.00;100428.34;104198;1261;66411;-58
2023/12/30 00:46:19;;;;;;;5.30;3.70;;;;;;;5.41;100.00;100432.95;104187;1267;72897;-58
2023/12/30 00:48:47;;;;;;;5.00;4.50;;;;;;;5.43;100.00;100435.60;107332;1260;59748;-58
2023/12/30 00:51:25;;;;;;;4.50;4.10;;;;;;;5.44;100.00;100437.20;104241;1261;60517;-57
2023/12/30 00:53:52;;;;;;;5.80;5.20;;;;;;;5.44;100.00;100439.85;104270;1260;71879;-58
2023/12/30 00:56:19;;;;;;;5.70;4.70;;;;;;;5.43;100.00;100442.54;104347;1264;66193;-59
2023/12/30 00:58:47;;;;;;;7.70;5.20;;;;;;;5.42;100.00;100445.95;104513;1264;71410;-58
2023/12/30 01:01:14;;;;;;;6.00;4.30;;;;;;;5.39;100.00;100440.46;104082;1267;59724;-57
2023/12/30 01:03:42;;;;;;;4.60;4.10;;;;;;;5.37;100.00;100442.98;104292;1264;60032;-55
2023/12/30 01:06:09;;;;;;;5.60;4.50;;;;;;;5.35;100.00;100442.33;108466;1260;72079;-60
2023/12/30 01:08:36;;;;;;;4.40;3.80;;;;;;;5.34;100.00;100441.27;108458;1260;65789;-60
2023/12/30 01:11:04;;;;;;;4.40;3.30;;;;;;;5.35;100.00;100443.22;108545;1264;71515;-59
2023/12/30 01:13:31;;;;;;;5.80;4.60;;;;;;;5.38;100.00;100444.04;108434;1265;58938;-59
2023/12/30 01:15:59;;;;;;;9.10;4.30;;;;;;;5.41;100.00;100448.27;108589;1260;60122;-58
2023/12/30 01:18:26;;;;;;;4.30;3.90;;;;;;;5.42;100.00;100443.45;108522;1262;73916;-56
2023/12/30 01:20:53;;;;;;;6.00;3.90;;;;;;;5.43;100.00;100432.58;108453;1264;66955;-56
2023/12/30 01:23:21;;;;;;;4.70;4.20;;;;;;;5.42;100.00;100435.80;108644;1260;71522;-57
2023/12/30 01:25:48;;;;;;;4.70;4.30;;;;;;;5.40;100.00;100436.00;108654;1263;59249;-57
2023/12/30 01:28:15;;;;;;;5.30;3.70;;;;;;;5.37;100.00;100435.70;108495;1260;60587;-57
2023/12/30 01:30:43;;;;;;;5.90;3.80;;;;;;;5.35;100.00;100431.64;108481;1264;73143;-57
2023/12/30 01:33:10;;;;;;;4.40;3.70;;;;;;;5.34;100.00;100430.58;108521;1261;65538;-58
2023/12/30 01:35:38;;;;;;;3.30;2.70;;;;;;;5.35;100.00;100429.86;108527;1260;72802;-57
2023/12/30 01:38:06;;;;;;;4.90;3.30;;;;;;;5.39;100.00;100429.08;108280;1261;58876;-57
2023/12/30 01:40:33;;;;;;;4.30;3.30;;;;;;;5.43;100.00;100431.34;108096;1260;60008;-59
2023/12/30 01:43:02;;;;;;;3.90;3.30;;;;;;;5.47;100.00;100431.08;104247;1264;72691;-58
2023/12/30 01:45:31;;;;;;;5.00;3.90;;;;;;;5.49;100.00;100432.83;105736;1261;65515;-56
2023/12/30 01:47:59;;;;;;;5.10;4.10;;;;;;;5.49;100.00;100430.33;104199;1261;73563;-54
2023/12/30 01:50:27;;;;;;;5.30;3.60;;;;;;;5.48;100.00;100429.64;104559;1261;59734;-58
2023/12/30 01:52:54;;;;;;;4.70;3.40;;;;;;;5.45;100.00;100429.33;104342;1267;59749;-56
2023/12/30 01:55:21;;;;;;;4.80;2.70;;;;;;;5.41;100.00;100424.42;104233;1263;73066;-58
2023/12/30 01:57:49;;;;;;;4.30;2.90;;;;;;;5.39;100.00;100422.49;104367;1261;66734;-57
2023/12/30 02:00:19;;;;;;;4.00;2.90;;;;;;;5.37;100.00;100413.97;104887;1266;72665;-57
2023/12/30 02:02:49;;;;;;;7.00;3.00;;;;;;;5.37;100.00;100412.54;104417;1267;60115;-58
2023/12/30 02:05:17;;;;;;;4.20;3.80;;;;;;;5.38;100.00;100414.30;104275;1266;59682;-58
2023/12/30 02:07:45;;;;;;;6.20;3.70;;;;;;;5.39;100.00;100415.02;106313;1265;71901;-59
2023/12/30 02:10:13;;;;;;;3.60;3.30;;;;;;;5.38;100.00;100412.89;104397;1266;65665;-58
2023/12/30 02:12:40;;;;;;;5.30;3.60;;;;;;;5.37;100.00;100411.11;104245;1261;71507;-58
2023/12/30 02:15:15;;;;;;;4.30;3.50;;;;;;;5.34;100.00;100410.11;104347;1264;59775;-58
2023/12/30 02:17:43;;;;;;;;;;;;;;;5.31;100.00;100411.58;105343;1261;60139;-58
2023/12/30 02:20:11;;;;;;;5.00;3.50;;;;;;;5.28;100.00;100408.42;105816;1266;71887;-58
2023/12/30 02:22:46;;;;;;;4.30;3.20;;;;;;;5.26;100.00;100407.41;104778;1261;66205;-55
2023/12/30 02:25:14;;;;;;;;;;;;;;;5.26;100.00;100412.94;104714;1263;71461;-58
2023/12/30 02:27:42;;;;;;;3.20;2.70;;;;;;;5.26;100.00;100412.04;104799;1261;59781;-58
2023/12/30 02:30:10;;;;;;;3.30;2.90;;;;;;;5.26;100.00;100409.55;104522;1265;59731;-59
2023/12/30 02:32:38;;;;;;;4.40;4.00;;;;;;;5.27;100.00;100412.17;104481;1262;73121;-57
2023/12/30 02:35:06;;;;;;;3.70;3.10;;;;;;;5.31;100.00;100413.73;106048;1263;66033;-58
2023/12/30 02:37:34;;;;;;;4.20;3.70;;;;;;;5.31;100.00;100413.90;104507;1264;73617;-56
2023/12/30 02:40:01;;;;;;;5.60;4.10;;;;;;;5.31;100.00;100414.08;105334;1263;60597;-57
2023/12/30 02:42:29;;;;;;;5.10;4.30;;;;;;;5.30;100.00;100420.31;104248;1263;60631;-58
2023/12/30 02:44:57;;;;;;;4.50;4.00;;;;;;;5.28;100.00;100422.12;104127;1263;73128;-57
2023/12/30 02:47:25;;;;;;;4.80;4.20;;;;;;;5.27;100.00;100423.41;104015;1262;65651;-57
2023/12/30 02:49:52;;;;;;;3.70;3.10;;;;;;;5.25;100.00;100421.65;104813;1260;72736;-59
2023/12/30 02:52:20;;;;;;;3.90;2.90;;;;;;;5.26;100.00;100421.83;105310;1254;60832;-57
2023/12/30 02:54:48;;;;;;;4.40;3.30;;;;;;;5.26;100.00;100422.70;105191;1254;60556;-59
2023/12/30 02:57:15;;;;;;;3.70;2.70;;;;;;;5.28;100.00;100419.09;105829;1256;74320;-59
2023/12/30 02:59:43;;;;;;;3.50;3.00;;;;;;;5.29;100.00;100419.61;104855;1254;66367;-58
2023/12/30 03:02:10;;;;;;;3.60;3.40;;;;;;;5.33;100.00;100415.83;104870;1258;71462;-58
2023/12/30 03:04:38;;;;;;;3.40;2.70;;;;;;;5.36;100.00;100414.19;105373;1254;60530;-58
2023/12/30 03:07:05;;;;;;;3.90;3.50;;;;;;;5.38;100.00;100416.80;105070;1254;60301;-58
2023/12/30 03:09:33;;;;;;;4.50;4.10;;;;;;;5.39;100.00;100415.20;104698;1259;72729;-58
2023/12/30 03:12:02;;;;;;;3.90;3.60;;;;;;;5.38;100.00;100415.03;104769;1254;66249;-58
2023/12/30 03:14:29;;;;;;;5.00;3.30;;;;;;;5.34;100.00;100409.05;105680;1257;72773;-57
2023/12/30 03:16:57;;;;;;;3.30;3.00;;;;;;;5.30;100.00;100404.83;104686;1254;60526;-57
2023/12/30 03:19:25;;;;;;;4.70;3.20;;;;;;;5.27;100.00;100400.27;104683;1254;60551;-59
2023/12/30 03:21:53;;;;;;;3.50;3.20;;;;;;;5.25;100.00;100398.70;104452;1254;73315;-58
2023/12/30 03:24:21;;;;;;;4.80;3.40;;;;;;;5.24;100.00;100395.86;105263;1260;66268;-58
2023/12/30 03:26:48;;;;;;;4.90;3.20;;;;;;;5.25;100.00;100393.19;104853;1257;72918;-56
2023/12/30 03:29:15;;;;;;;3.10;2.80;;;;;;;5.26;100.00;100395.84;104760;1256;60631;-58
2023/12/30 03:31:42;;;;;;;5.00;4.20;;;;;;;5.26;100.00;100396.02;104717;1254;60623;-58
2023/12/30 03:34:10;;;;;;;3.50;3.20;;;;;;;5.25;100.00;100394.96;104902;1254;72295;-58
2023/12/30 03:36:37;;;;;;;4.20;2.70;;;;;;;5.25;100.00;100396.94;105155;1254;66075;-59
2023/12/30 03:39:05;;;;;;;4.30;3.90;;;;;;;5.24;100.00;100395.87;104871;1258;73043;-59
2023/12/30 03:41:33;;;;;;;3.30;3.00;;;;;;;5.22;100.00;100400.52;105923;1254;60813;-59
2023/12/30 03:44:00;;;;;;;4.00;3.20;;;;;;;5.20;100.00;100397.71;104738;1253;60428;-57
2023/12/30 03:46:27;;;;;;;3.70;3.10;;;;;;;5.18;100.00;100395.79;104793;1254;74192;-55
2023/12/30 03:48:55;;;;;;;5.80;2.80;;;;;;;5.17;100.00;100393.31;104968;1257;67239;-58
2023/12/30 03:51:22;;;;;;;3.40;2.30;;;;;;;5.17;100.00;100394.91;105023;1254;71825;-59
2023/12/30 03:53:50;;;;;;;3.50;3.20;;;;;;;5.18;100.00;100394.73;104837;1254;60408;-59
2023/12/30 03:56:18;;;;;;;2.90;2.60;;;;;;;5.20;100.00;100394.33;104865;1254;60873;-60
2023/12/30 03:58:45;;;;;;;4.10;2.90;;;;;;;5.21;100.00;100399.64;104767;1254;74099;-57
2023/12/30 04:01:13;;;;;;;3.60;3.10;;;;;;;5.23;100.00;100396.42;104812;1253;65947;-58
2023/12/30 04:03:40;;;;;;;4.30;3.70;;;;;;;5.22;100.00;100393.23;104992;1254;72930;-58
2023/12/30 04:06:15;;;;;;;3.70;2.70;;;;;;;5.22;100.00;100391.45;105201;1254;61808;-58
2023/12/30 04:08:42;;;;;;;3.80;3.50;;;;;;;5.19;100.00;100391.33;105347;1256;59720;-58
2023/12/30 04:11:10;;;;;;;3.80;3.50;;;;;;;5.16;100.00;100388.89;104771;1253;72636;-57
2023/12/30 04:13:37;;;;;;;4.80;3.10;;;;;;;5.14;100.00;100386.60;104608;1259;66072;-57
2023/12/30 04:16:05;;;;;;;2.80;2.60;;;;;;;5.12;100.00;100383.06;104997;1258;71524;-58
2023/12/30 04:18:32;;;;;;;4.10;2.20;;;;;;;5.11;100.00;100383.61;104467;1260;61623;-59
2023/12/30 04:20:59;;;;;;;2.80;2.60;;;;;;;5.12;100.00;100383.25;104958;1260;60387;-58
2023/12/30 04:23:27;;;;;;;3.90;3.00;;;;;;;5.12;100.00;100386.80;104765;1254;73896;-58
2023/12/30 04:25:54;;;;;;;4.20;3.80;;;;;;;5.12;100.00;100386.98;104634;1257;66761;-59
2023/12/30 04:28:21;;;;;;;4.20;3.80;;;;;;;5.12;100.00;100388.76;104852;1254;71450;-57
2023/12/30 04:30:49;;;;;;;4.70;2.70;;;;;;;5.11;100.00;100384.33;108949;1254;58713;-59
2023/12/30 04:33:16;;;;;;;3.70;3.40;;;;;;;5.10;100.00;100383.29;109077;1252;60101;-59
2023/12/30 04:35:44;;;;;;;5.80;5.20;;;;;;;5.07;100.00;100385.11;109155;1253;72652;-59
2023/12/30 04:38:12;;;;;;;6.20;3.70;;;;;;;5.05;100.00;100382.48;108966;1254;66021;-59
2023/12/30 04:40:39;;;;;;;6.80;5.20;;;;;;;5.04;100.00;100385.16;109084;1254;73167;-58
2023/12/30 04:43:06;;;;;;;4.10;3.70;;;;;;;5.02;100.00;100388.05;109014;1256;61675;-59
2023/12/30 04:45:34;;;;;;;3.80;3.30;;;;;;;5.01;100.00;100378.64;108913;1252;58842;-59
2023/12/30 04:48:01;;;;;;;4.80;4.20;;;;;;;5.02;100.00;100381.63;109097;1254;73878;-59
2023/12/30 04:50:29;;;;;;;3.90;3.60;;;;;;;5.03;100.00;100382.31;108405;1254;65783;-58
2023/12/30 04:52:56;;;;;;;4.10;3.80;;;;;;;5.05;100.00;100386.58;105052;1257;71418;-56
2023/12/30 04:55:24;;;;;;;3.50;3.10;;;;;;;5.06;100.00;100386.20;104818;1257;60496;-58
2023/12/30 04:57:52;;;;;;;7.00;3.50;;;;;;;5.07;100.00;100384.59;104682;1259;60459;-59
2023/12/30 05:00:19;;;;;;;3.40;2.80;;;;;;;5.06;100.00;100384.77;104893;1256;73321;-58
2023/12/30 05:02:50;;;;;;;5.30;3.50;;;;;;;5.04;100.00;100381.59;105034;1254;65786;-58
2023/12/30 05:05:17;;;;;;;3.90;3.50;;;;;;;5.02;100.00;100381.28;104619;1254;71333;-57
2023/12/30 05:07:45;;;;;;;3.40;2.90;;;;;;;5.01;100.00;100375.63;104861;1259;60530;-56
2023/12/30 05:10:12;;;;;;;4.10;3.60;;;;;;;4.99;100.00;100370.30;105021;1257;61122;-55
2023/12/30 05:12:39;;;;;;;4.10;3.60;;;;;;;4.98;100.00;100368.89;104835;1257;73901;-58
2023/12/30 05:15:07;;;;;;;3.40;3.10;;;;;;;4.97;100.00;100372.64;107004;1254;65166;-57
2023/12/30 05:17:35;;;;;;;3.10;2.60;;;;;;;4.95;100.00;100367.68;105424;1253;72700;-58
2023/12/30 05:20:04;;;;;;;4.80;3.60;;;;;;;4.95;100.00;100369.64;104860;1254;60567;-58
2023/12/30 05:22:31;;;;;;;4.20;3.90;;;;;;;4.94;100.00;100367.69;105269;1257;60453;-57
2023/12/30 05:24:59;;;;;;;5.80;3.60;;;;;;;4.93;100.00;100370.74;104959;1255;74329;-56
2023/12/30 05:27:26;;;;;;;5.10;3.80;;;;;;;4.91;100.00;100369.89;105051;1254;65425;-56
2023/12/30 05:29:53;;;;;;;5.60;3.70;;;;;;;4.89;100.00;100369.92;104933;1254;71440;-57
2023/12/30 05:32:21;;;;;;;4.50;3.90;;;;;;;4.87;100.00;100368.34;104871;1259;60826;-58
2023/12/30 05:34:48;;;;;;;6.60;4.40;;;;;;;4.86;100.00;100368.89;104747;1260;60476;-57
2023/12/30 05:37:15;;;;;;;4.70;3.50;;;;;;;4.85;100.00;100371.41;104814;1254;74359;-57
2023/12/30 05:39:43;;;;;;;5.30;4.80;;;;;;;4.85;100.00;100370.86;104720;1254;65715;-57
2023/12/30 05:42:10;;;;;;;6.10;4.80;;;;;;;4.84;100.00;100369.12;105194;1259;73160;-58
2023/12/30 05:44:37;;;;;;;6.00;5.40;;;;;;;4.82;100.00;100373.23;104861;1254;60826;-58
2023/12/30 05:47:05;;;;;;;6.70;6.10;;;;;;;4.80;100.00;100377.88;104764;1260;60422;-57
2023/12/30 05:49:33;;;;;;;5.90;5.10;;;;;;;4.77;100.00;100373.11;104834;1254;72650;-59
2023/12/30 05:52:00;;;;;;;9.90;6.10;;;;;;;4.74;100.00;100371.05;104829;1258;67722;-58
2023/12/30 05:54:28;;;;;;;5.10;3.70;;;;;;;4.71;100.00;100364.86;104838;1254;72417;-58
2023/12/30 05:56:55;;;;;;;4.30;3.70;;;;;;;4.69;100.00;100366.66;104731;1257;60525;-58
2023/12/30 05:59:23;;;;;;;10.20;5.40;;;;;;;4.69;100.00;100366.84;104811;1257;60488;-58
2023/12/30 06:01:50;;;;;;;6.70;5.10;;;;;;;4.69;100.00;100365.95;104727;1254;73941;-57
2023/12/30 06:04:18;;;;;;;5.40;4.00;;;;;;;4.69;100.00;100364.17;104766;1254;66815;-59
2023/12/30 06:06:45;;;;;;;7.10;5.10;;;;;;;4.68;100.00;100366.14;104658;1255;71481;-58
2023/12/30 06:09:12;;;;;;;6.00;5.40;;;;;;;4.67;100.00;100367.77;104834;1254;61556;-59
2023/12/30 06:11:40;;;;;;;6.90;5.80;;;;;;;4.65;100.00;100366.91;104693;1257;60341;-58
2023/12/30 06:14:07;;;;;;;6.20;5.60;;;;;;;4.64;100.00;100372.08;104727;1254;72623;-58
2023/12/30 06:16:35;;;;;;;8.30;5.80;;;;;;;4.62;100.00;100373.35;104863;1254;65085;-58
2023/12/30 06:19:02;;;;;;;9.90;6.40;;;;;;;4.61;100.00;100369.27;104783;1254;72636;-58
2023/12/30 06:21:30;;;;;;;8.90;6.30;;;;;;;4.60;100.00;100376.41;105128;1255;60550;-58
2023/12/30 06:23:57;;;;;;;8.40;5.60;;;;;;;4.59;100.00;100376.60;104793;1254;60626;-57
2023/12/30 06:26:24;;;;;;;7.70;5.50;;;;;;;4.60;100.00;100374.63;104642;1259;74290;-57
2023/12/30 06:28:52;;;;;;;10.60;5.50;;;;;;;4.61;100.00;100372.65;104762;1254;65826;-57
2023/12/30 06:31:19;;;;;;;8.80;6.10;;;;;;;4.62;100.00;100371.76;105224;1254;72709;-57
2023/12/30 06:33:46;;;;;;;8.70;7.30;;;;;;;4.63;100.00;100372.27;104975;1254;60656;-58
2023/12/30 06:36:21;;;;;;;9.60;7.50;;;;;;;4.65;100.00;100377.59;105068;1257;60362;-57
2023/12/30 06:38:52;;;;;;;8.00;7.20;;;;;;;4.66;100.00;100380.59;105354;1257;73956;-56
2023/12/30 06:41:19;;;;;;;10.30;7.70;;;;;;;4.67;100.00;100383.60;105146;1257;68074;-56
2023/12/30 06:43:47;;;;;;;7.70;6.10;;;;;;;4.66;100.00;100382.55;105076;1259;72430;-57
2023/12/30 06:46:17;;;;;;;11.40;6.80;;;;;;;4.67;100.00;100383.42;106265;1256;60568;-56
2023/12/30 06:48:45;;;;;;;9.80;6.30;;;;;;;4.69;100.00;100384.09;105156;1254;62617;-56
2023/12/30 06:51:13;;;;;;;6.50;5.20;;;;;;;4.71;100.00;100386.55;105092;1257;72878;-57
2023/12/30 06:53:40;;;;;;;11.30;5.90;;;;;;;4.74;100.00;100386.16;105090;1254;66971;-56
2023/12/30 06:56:08;;;;;;;7.30;6.20;;;;;;;4.78;100.00;100386.26;104981;1254;72760;-56
2023/12/30 06:58:36;;;;;;;7.70;6.90;;;;;;;4.83;100.00;100386.38;105220;1257;60415;-58
2023/12/30 07:01:04;;;;;;;7.10;5.40;;;;;;;4.88;100.00;100385.23;105202;1254;60491;-56
2023/12/30 07:03:32;;;;;;;9.70;6.30;;;;;;;4.93;100.00;100389.42;105388;1253;73820;-57
2023/12/30 07:05:59;;;;;;;7.60;6.40;;;;;;;4.98;100.00;100390.06;105060;1257;65249;-58
2023/12/30 07:08:27;;;;;;;7.60;6.60;;;;;;;4.99;100.00;100393.08;105171;1254;72700;-57
2023/12/30 07:10:54;;;;;;;7.60;6.50;;;;;;;5.00;100.00;100398.23;105145;1254;60623;-56
2023/12/30 07:13:21;;;;;;;9.70;6.90;;;;;;;5.02;100.00;100401.04;104910;1253;62342;-56
2023/12/30 07:15:50;;;;;;;7.00;6.00;;;;;;;5.04;100.00;100399.92;105764;1257;74146;-56
2023/12/30 07:18:17;;;;;;;7.40;5.90;;;;;;;5.07;100.00;100398.46;105024;1258;67464;-57
2023/12/30 07:20:45;;;;;;;9.30;6.70;;;;;;;5.11;100.00;100399.30;105081;1259;72739;-57
2023/12/30 07:23:13;;;;;;;8.70;7.00;;;;;;;5.14;100.00;100396.20;105060;1254;60605;-58
2023/12/30 07:25:40;;;;;;;9.40;7.60;;;;;;;5.18;100.00;100402.55;105553;1257;60394;-58
2023/12/30 07:28:08;;;;;;;9.00;8.10;;;;;;;5.23;100.00;100404.60;105005;1254;72937;-57
2023/12/30 07:30:35;;;;;;;11.00;7.90;;;;;;;5.27;100.00;100406.83;105138;1257;66956;-56
2023/12/30 07:33:03;;;;;;;10.80;7.90;;;;;;;5.32;100.00;100404.28;105997;1254;71579;-55
2023/12/30 07:35:31;;;;;;;10.70;7.90;;;;;;;5.36;100.00;100405.98;105052;1257;60490;-57
2023/12/30 07:37:58;;;;;;;9.20;7.00;;;;;;;5.41;100.00;100406.27;105050;1254;60576;-54
2023/12/30 07:40:26;;;;;;;10.40;5.80;;;;;;;5.45;100.00;100413.84;104985;1254;73919;-57
2023/12/30 07:42:54;;;;;;;8.60;5.90;;;;;;;5.50;100.00;100416.08;106621;1254;66064;-56
2023/12/30 07:45:21;;;;;;;6.30;5.70;;;;;;;5.54;100.00;100416.34;105772;1254;71443;-56
2023/12/30 07:47:49;;;;;;;10.10;6.50;;;;;;;5.60;100.00;100423.38;104758;1259;60350;-55
2023/12/30 07:50:17;;;;;;;7.20;6.40;;;;;;;5.65;100.00;100429.69;105362;1253;61479;-57
2023/12/30 07:52:44;;;;;;;5.50;4.80;;;;;;;5.71;100.00;100431.73;105103;1253;73934;-55
2023/12/30 07:55:12;;;;;;;7.80;6.40;;;;;;;5.77;100.00;100439.13;104888;1259;65615;-57
2023/12/30 07:57:39;;;;;;;8.10;7.20;;;;;;;5.81;100.00;100443.48;104970;1254;73594;-55
2023/12/30 08:00:07;;;;;;;8.60;5.80;;;;;;;5.84;100.00;100442.38;105034;1254;59673;-56
2023/12/30 08:02:37;;;;;;;7.10;5.90;;;;;;;5.87;100.00;100445.34;104993;1254;60549;-56
2023/12/30 08:05:05;;;;;;;10.50;5.80;;;;;;;5.90;100.00;100445.13;104792;1258;73980;-58
2023/12/30 08:07:32;;;;;;;7.40;6.70;;;;;;;5.95;100.00;100448.60;104580;1254;66844;-57
2023/12/30 08:09:59;;;;;;;10.00;5.70;;;;;;;6.01;100.00;100444.58;104659;1254;71055;-56
2023/12/30 08:12:27;;;;;;;6.50;5.30;;;;;;;6.06;100.00;100446.42;106602;1254;60088;-57
2023/12/30 08:14:54;;;;;;;7.40;6.10;;;;;;;6.12;100.00;100449.36;104762;1259;60454;-57
2023/12/30 08:17:21;;;;;;;6.20;5.70;;;;;;;6.17;100.00;100448.19;104977;1254;74366;-55
2023/12/30 08:19:49;;;;;;;8.80;7.40;;;;;;;6.23;100.00;100451.27;105095;1258;65606;-57
2023/12/30 08:22:18;;;;;;;6.90;6.30;;;;;;;6.29;100.00;100446.16;104915;1258;71918;-57
2023/12/30 08:24:47;;;;;;;7.50;6.50;;;;;;;6.35;100.00;100451.39;105591;1258;61007;-57
2023/12/30 08:27:15;;;;;;;8.90;6.30;;;;;;;6.40;100.00;100455.02;104963;1259;59568;-56
2023/12/30 08:29:43;;;;;;;8.60;5.50;;;;;;;6.45;100.00;100454.23;104729;1257;74392;-57
2023/12/30 08:32:10;;;;;;;6.20;5.20;;;;;;;6.50;100.00;100456.96;104923;1254;67400;-57
2023/12/30 08:34:37;;;;;;;7.60;6.10;;;;;;;6.56;100.00;100454.01;105049;1258;73232;-56
2023/12/30 08:37:09;;;;;;;6.80;5.80;;;;;;;6.62;100.00;100454.04;105008;1256;60472;-57
2023/12/30 08:39:37;;;;;;;8.00;5.80;;;;;;;6.69;100.00;100451.21;105154;1254;64170;-58
2023/12/30 08:42:05;;;;;;;9.70;6.50;;;;;;;6.75;100.00;100457.14;104792;1254;72667;-58
2023/12/30 08:44:35;;;;;;;6.30;5.70;;;;;;;6.81;100.00;100461.11;104999;1254;67543;-58
2023/12/30 08:47:03;;;;;;;6.90;6.20;;;;;;;6.86;100.00;100461.20;105130;1256;72916;-56
2023/12/30 08:49:30;;;;;;;8.00;6.30;;;;;;;6.91;100.00;100459.30;105255;1257;60725;-57
2023/12/30 08:51:58;;;;;;;5.20;4.70;;;;;;;6.95;100.00;100460.10;105081;1253;60453;-57
2023/12/30 08:54:26;;;;;;;7.80;5.80;;;;;;;7.00;100.00;100466.93;105022;1254;72638;-56
2023/12/30 08:56:54;;;;;;;7.30;4.50;;;;;;;7.04;100.00;100466.14;105137;1257;65157;-58
2023/12/30 08:59:22;;;;;;;7.40;5.40;;;;;;;7.11;100.00;100467.23;104746;1256;71479;-57
2023/12/30 09:01:53;;;;;;;7.40;4.30;;;;;;;7.18;100.00;100469.73;104818;1254;60473;-57
2023/12/30 09:04:20;;;;;;;5.50;4.20;;;;;;;7.27;100.00;100475.25;105030;1254;60613;-56
2023/12/30 09:06:48;;;;;;;5.40;4.10;;;;;;;7.36;100.00;100471.64;106296;1257;76131;-58
2023/12/30 09:09:15;;;;;;;5.30;3.90;;;;;;;7.45;100.00;100468.75;104915;1253;65864;-55
2023/12/30 09:11:42;;;;;;;7.20;5.30;;;;;;;7.52;100.00;100475.16;104976;1254;72662;-58
2023/12/30 09:14:10;;;;;;;6.10;5.20;;;;;;;7.61;100.00;100480.32;105298;1252;60478;-56
2023/12/30 09:16:38;;;;;;;5.90;4.30;;;;;;;7.68;100.00;100488.54;105014;1258;60567;-56
2023/12/30 09:19:05;;;;;;;7.50;4.90;;;;;;;7.76;100.00;100489.61;105319;1257;73826;-57
2023/12/30 09:21:33;;;;;;;6.10;4.40;;;;;;;7.84;100.00;100494.04;105031;1257;66271;-58
2023/12/30 09:24:01;;;;;;;5.30;4.40;;;;;;;7.94;100.00;100491.45;104918;1257;72724;-58
2023/12/30 09:26:28;;;;;;;8.20;5.40;;;;;;;8.06;100.00;100497.58;104844;1254;60863;-58
2023/12/30 09:28:55;;;;;;;7.50;6.60;;;;;;;8.18;100.00;100497.98;104704;1254;60298;-57
2023/12/30 09:31:26;;;;;;;8.90;6.80;;;;;;;8.31;100.00;100502.99;104974;1258;73983;-55
2023/12/30 09:33:54;;;;;;;5.40;4.90;;;;;;;8.43;100.00;100511.46;105546;1254;66786;-56
2023/12/30 09:36:22;;;;;;;5.10;4.60;;;;;;;8.53;100.00;100514.02;104936;1257;71793;-57
2023/12/30 09:38:49;;;;;;;6.40;5.40;;;;;;;8.61;100.00;100515.95;104899;1258;60422;-58
2023/12/30 09:41:17;;;;;;;6.20;4.90;;;;;;;8.64;100.00;100516.59;105005;1257;60444;-57
2023/12/30 09:43:44;;;;;;;7.30;5.00;;;;;;;8.66;100.00;100519.02;104910;1254;71740;-54
2023/12/30 09:46:12;;;;;;;3.60;3.30;;;;;;;8.69;100.00;100519.45;105071;1254;67002;-55
2023/12/30 09:48:39;;;;;;;4.70;4.30;;;;;;;8.74;100.00;100518.28;106357;1257;72196;-57
2023/12/30 09:51:06;;;;;;;4.50;4.10;;;;;;;8.80;100.00;100517.92;104894;1254;60552;-55
2023/12/30 09:53:34;;;;;;;3.90;3.50;;;;;;;8.87;100.00;100524.52;104719;1259;60534;-53
2023/12/30 09:56:01;;;;;;;6.30;4.70;;;;;;;8.93;100.00;100528.45;104963;1254;72612;-57
2023/12/30 09:58:29;;;;;;;6.20;4.30;;;;;;;9.00;100.00;100535.56;104793;1259;67020;-57
2023/12/30 10:00:56;;;;;;;4.20;3.80;;;;;;;9.05;100.00;100545.80;104747;1254;72740;-56
2023/12/30 10:03:25;;;;;;;5.00;4.60;;;;;;;9.09;100.00;100555.17;104998;1254;62099;-58
2023/12/30 10:05:54;;;;;;;6.70;4.40;;;;;;;9.14;100.00;100569.02;108924;1252;58532;-58
2023/12/30 10:08:22;;;;;;;5.50;4.80;;;;;;;9.17;100.00;100572.69;108924;1254;72437;-58
2023/12/30 10:10:49;;;;;;;4.30;3.70;;;;;;;9.20;100.00;100572.77;105164;1254;66996;-56
2023/12/30 10:13:26;;;;;;;5.20;4.40;;;;;;;9.22;100.00;100576.46;104976;1257;71778;-56
2023/12/30 10:15:55;;;;;;;4.40;3.50;;;;;;;9.26;100.00;100587.63;109055;1253;62167;-58
2023/12/30 10:18:23;;;;;;;3.30;3.00;;;;;;;9.30;100.00;100591.98;109081;1254;58873;-59
2023/12/30 10:20:51;;;;;;;4.30;3.90;;;;;;;9.33;100.00;100594.76;108761;1253;74215;-58
2023/12/30 10:23:19;;;;;;;5.60;3.40;;;;;;;9.38;100.00;100598.55;109182;1254;67531;-59
2023/12/30 10:25:46;;;;;;;5.70;5.20;;;;;;;9.42;100.00;100603.98;109067;1253;73875;-58
2023/12/30 10:28:13;;;;;;;5.60;4.10;;;;;;;9.46;100.00;100604.39;106938;1254;60552;-58
2023/12/30 10:30:41;;;;;;;3.70;3.40;;;;;;;9.48;100.00;100602.37;109107;1253;58889;-58
2023/12/30 10:33:10;;;;;;;3.70;3.20;;;;;;;9.49;100.00;100596.41;109118;1253;74327;-58
2023/12/30 10:35:38;;;;;;;4.30;4.00;;;;;;;9.50;100.00;100599.98;109132;1254;67135;-58
2023/12/30 10:38:09;;;;;;;3.60;3.30;;;;;;;9.48;100.00;100595.20;109064;1254;73140;-58
2023/12/30 10:40:38;;;;;;;4.40;3.40;;;;;;;9.45;100.00;100591.52;109112;1254;58786;-59
2023/12/30 10:43:06;;;;;;;4.10;3.70;;;;;;;9.41;100.00;100583.41;108734;1253;58811;-58
2023/12/30 10:48:00;;;;;;;4.20;3.20;;;;;;;9.32;100.00;100640.09;101978;1292;603202;-54
2023/12/30 10:50:28;;;;;;;4.00;3.40;;;;;;;9.29;100.00;100702.70;104028;1267;59331;-56
2023/12/30 10:53:01;;;;;;;5.20;3.30;;;;;;;9.27;100.00;100684.30;108120;1266;58814;-58
2023/12/30 10:55:31;;;;;;;3.80;2.20;;;;;;;9.25;100.00;100674.35;108246;1266;72353;-59
2023/12/30 10:58:18;;;;;;;2.40;1.90;;;;;;;9.24;100.00;100659.69;108283;1266;67090;-58
2023/12/30 11:00:48;;;;;;;3.70;2.30;;;;;;;9.25;100.00;100658.41;105037;1266;216926;-58
2023/12/30 11:03:16;;;;;;;2.20;2.00;;;;;;;9.27;100.00;100642.60;104589;1264;58968;-56
2023/12/30 11:05:52;;;;;;;3.60;2.40;;;;;;;9.29;100.00;100631.60;103972;1264;60300;-57
2023/12/30 11:08:19;;;;;;;3.30;2.00;;;;;;;9.31;100.00;100622.77;108288;1266;72324;-58
2023/12/30 11:10:46;;;;;;;2.90;1.90;;;;;;;9.34;100.00;100617.31;105336;1264;64877;-57
2023/12/30 11:13:14;;;;;;;2.60;1.70;;;;;;;9.36;100.00;100621.52;104086;1267;73163;-58
2023/12/30 11:15:41;;;;;;;3.70;1.70;;;;;;;9.37;100.00;100619.35;104127;1267;60053;-58
2023/12/30 11:18:10;;;;;;;1.90;1.80;;;;;;;9.37;100.00;100615.22;104293;1263;60505;-56
2023/12/30 11:20:44;;;;;;;5.20;2.50;;;;;;;9.38;100.00;100607.13;104255;1264;71575;-57
2023/12/30 11:23:14;;;;;;;1.80;1.70;;;;;;;9.38;100.00;100595.50;104506;1260;65676;-58